sensor_id;sensor_type;location;lat;lon;timestamp;P1;P2;P0
47709;PMS7003;33473;51.640;5.892;2023-02-01T00:04:29;7.81;6.55;3.82
47709;PMS7003;33473;51.640;5.892;2023-02-01T00:17:48;6.73;7.42;3.71
47709;PMS7003;33473;51.640;5.892;2023-02-01T00:31:08;8.05;6.55;3.71
47709;PMS7003;33473;51.640;5.892;2023-02-01T00:44:28;7.21;6.99;3.61
47709;PMS7003;33473;51.640;5.892;2023-02-01T00:57:47;6.25;5.9;3.17
47709;PMS7003;33473;51.640;5.892;2023-02-01T01:11:07;5.17;5.02;2.73
47709;PMS7003;33473;51.640;5.892;2023-02-01T01:24:27;6.61;4.91;2.62
47709;PMS7003;33473;51.640;5.892;2023-02-01T01:37:46;3.97;5.02;2.52
47709;PMS7003;33473;51.640;5.892;2023-02-01T01:51:06;4.21;3.82;1.86
47709;PMS7003;33473;51.640;5.892;2023-02-01T02:04:26;5.65;3.5;2.08
47709;PMS7003;33473;51.640;5.892;2023-02-01T02:17:45;5.17;4.04;1.97
47709;PMS7003;33473;51.640;5.892;2023-02-01T02:31:05;12.85;4.15;1.97
47709;PMS7003;33473;51.640;5.892;2023-02-01T02:44:25;3.97;3.61;2.08
47709;PMS7003;33473;51.640;5.892;2023-02-01T02:57:44;2.28;4.26;2.52
47709;PMS7003;33473;51.640;5.892;2023-02-01T03:11:04;3.6;5.02;2.19
47709;PMS7003;33473;51.640;5.892;2023-02-01T03:24:24;5.05;4.8;2.52
47709;PMS7003;33473;51.640;5.892;2023-02-01T03:37:43;4.81;4.7;2.19
47709;PMS7003;33473;51.640;5.892;2023-02-01T03:51:03;3.6;4.37;2.3
47709;PMS7003;33473;51.640;5.892;2023-02-01T04:04:23;7.21;4.48;2.3
47709;PMS7003;33473;51.640;5.892;2023-02-01T04:17:43;13.45;4.48;1.97
47709;PMS7003;33473;51.640;5.892;2023-02-01T04:31:02;5.41;4.26;2.19
47709;PMS7003;33473;51.640;5.892;2023-02-01T04:44:22;6.13;4.7;2.3
47709;PMS7003;33473;51.640;5.892;2023-02-01T04:57:42;4.81;3.93;2.19
47709;PMS7003;33473;51.640;5.892;2023-02-01T05:11:01;3.24;4.04;2.08
47709;PMS7003;33473;51.640;5.892;2023-02-01T05:24:21;3.48;4.48;2.19
47709;PMS7003;33473;51.640;5.892;2023-02-01T05:37:41;6.01;3.93;2.08
47709;PMS7003;33473;51.640;5.892;2023-02-01T05:51:00;6.01;4.15;1.86
47709;PMS7003;33473;51.640;5.892;2023-02-01T06:04:20;6.85;4.48;2.19
47709;PMS7003;33473;51.640;5.892;2023-02-01T06:17:40;8.05;5.02;2.41
47709;PMS7003;33473;51.640;5.892;2023-02-01T06:30:59;6.01;4.15;1.97
47709;PMS7003;33473;51.640;5.892;2023-02-01T06:44:19;7.21;4.48;2.19
47709;PMS7003;33473;51.640;5.892;2023-02-01T06:57:39;4.93;5.02;2.3
47709;PMS7003;33473;51.640;5.892;2023-02-01T07:10:58;6.85;4.59;2.3
47709;PMS7003;33473;51.640;5.892;2023-02-01T07:24:18;8.77;4.8;2.3
47709;PMS7003;33473;51.640;5.892;2023-02-01T07:37:38;4.09;5.35;2.3
47709;PMS7003;33473;51.640;5.892;2023-02-01T07:50:58;4.69;4.8;2.52
47709;PMS7003;33473;51.640;5.892;2023-02-01T08:04:17;4.09;4.7;2.52
47709;PMS7003;33473;51.640;5.892;2023-02-01T08:17:37;10.69;4.8;2.73
47709;PMS7003;33473;51.640;5.892;2023-02-01T08:30:57;5.77;5.13;2.62
47709;PMS7003;33473;51.640;5.892;2023-02-01T08:44:16;6.01;4.91;2.41
47709;PMS7003;33473;51.640;5.892;2023-02-01T08:57:36;6.01;5.13;2.62
47709;PMS7003;33473;51.640;5.892;2023-02-01T09:10:56;12.25;5.02;2.41
47709;PMS7003;33473;51.640;5.892;2023-02-01T09:24:15;5.29;4.7;2.3
47709;PMS7003;33473;51.640;5.892;2023-02-01T09:37:35;4.33;5.02;2.73
47709;PMS7003;33473;51.640;5.892;2023-02-01T09:50:55;2.52;4.8;2.41
47709;PMS7003;33473;51.640;5.892;2023-02-01T10:04:14;3.6;4.48;2.41
47709;PMS7003;33473;51.640;5.892;2023-02-01T10:17:34;5.53;4.91;2.41
47709;PMS7003;33473;51.640;5.892;2023-02-01T10:30:54;7.09;4.7;2.3
47709;PMS7003;33473;51.640;5.892;2023-02-01T10:44:13;3.24;4.26;2.41
47709;PMS7003;33473;51.640;5.892;2023-02-01T10:57:33;1.56;3.82;2.08
47709;PMS7003;33473;51.640;5.892;2023-02-01T11:10:53;3.12;3.71;1.97
47709;PMS7003;33473;51.640;5.892;2023-02-01T11:24:12;3.24;3.93;1.97
47709;PMS7003;33473;51.640;5.892;2023-02-01T11:37:32;3.12;3.93;2.08
47709;PMS7003;33473;51.640;5.892;2023-02-01T11:50:52;2.64;3.82;1.97
47709;PMS7003;33473;51.640;5.892;2023-02-01T12:04:11;0.72;3.61;1.86
47709;PMS7003;33473;51.640;5.892;2023-02-01T12:17:31;4.93;3.82;1.86
47709;PMS7003;33473;51.640;5.892;2023-02-01T12:30:51;5.65;3.39;1.75
47709;PMS7003;33473;51.640;5.892;2023-02-01T12:44:10;2.28;2.84;1.64
47709;PMS7003;33473;51.640;5.892;2023-02-01T12:57:30;2.4;3.71;1.75
47709;PMS7003;33473;51.640;5.892;2023-02-01T13:10:50;7.45;3.93;1.97
47709;PMS7003;33473;51.640;5.892;2023-02-01T13:24:09;3.12;3.28;1.86
47709;PMS7003;33473;51.640;5.892;2023-02-01T13:37:29;1.68;3.82;1.75
47709;PMS7003;33473;51.640;5.892;2023-02-01T13:50:49;2.76;3.82;1.75
47709;PMS7003;33473;51.640;5.892;2023-02-01T14:04:08;1.68;3.39;1.75
47709;PMS7003;33473;51.640;5.892;2023-02-01T14:17:28;3.24;3.71;2.08
47709;PMS7003;33473;51.640;5.892;2023-02-01T14:30:48;3.36;3.61;2.08
47709;PMS7003;33473;51.640;5.892;2023-02-01T14:44:07;4.93;4.04;2.19
47709;PMS7003;33473;51.640;5.892;2023-02-01T14:57:27;5.05;3.82;1.97
47709;PMS7003;33473;51.640;5.892;2023-02-01T15:24:06;4.09;4.26;2.08
47709;PMS7003;33473;51.640;5.892;2023-02-01T15:37:26;8.05;4.37;2.3
47709;PMS7003;33473;51.640;5.892;2023-02-01T15:50:46;1.8;3.39;1.86
47709;PMS7003;33473;51.640;5.892;2023-02-01T16:04:05;3.85;3.93;1.97
47709;PMS7003;33473;51.640;5.892;2023-02-01T16:17:25;2.4;3.93;2.19
47709;PMS7003;33473;51.640;5.892;2023-02-01T16:30:45;4.93;4.04;2.08
47709;PMS7003;33473;51.640;5.892;2023-02-01T16:44:04;3.73;3.93;1.97
47709;PMS7003;33473;51.640;5.892;2023-02-01T16:57:24;4.93;4.15;2.19
47709;PMS7003;33473;51.640;5.892;2023-02-01T17:10:44;2.88;3.71;2.19
47709;PMS7003;33473;51.640;5.892;2023-02-01T17:24:03;3.97;4.26;2.08
47709;PMS7003;33473;51.640;5.892;2023-02-01T17:37:23;1.68;3.5;2.08
47709;PMS7003;33473;51.640;5.892;2023-02-01T17:50:43;2.76;4.15;2.19
47709;PMS7003;33473;51.640;5.892;2023-02-01T18:04:03;3.0;4.26;2.41
47709;PMS7003;33473;51.640;5.892;2023-02-01T18:17:22;14.29;4.7;2.19
47709;PMS7003;33473;51.640;5.892;2023-02-01T18:30:42;3.97;3.71;1.97
47709;PMS7003;33473;51.640;5.892;2023-02-01T18:44:02;1.92;4.26;1.86
47709;PMS7003;33473;51.640;5.892;2023-02-01T18:57:21;2.16;3.93;2.08
47709;PMS7003;33473;51.640;5.892;2023-02-01T19:10:41;3.0;3.71;1.97
47709;PMS7003;33473;51.640;5.892;2023-02-01T19:24:01;3.36;4.15;2.08
47709;PMS7003;33473;51.640;5.892;2023-02-01T19:37:20;3.6;3.82;1.86
47709;PMS7003;33473;51.640;5.892;2023-02-01T19:50:40;2.16;3.71;2.08
47709;PMS7003;33473;51.640;5.892;2023-02-01T20:04:00;1.68;3.71;1.86
47709;PMS7003;33473;51.640;5.892;2023-02-01T20:17:19;3.6;3.61;1.97
47709;PMS7003;33473;51.640;5.892;2023-02-01T20:30:39;4.57;3.82;1.86
47709;PMS7003;33473;51.640;5.892;2023-02-01T20:43:59;7.09;3.82;1.97
47709;PMS7003;33473;51.640;5.892;2023-02-01T20:57:18;5.29;4.15;2.08
47709;PMS7003;33473;51.640;5.892;2023-02-01T21:10:38;3.0;3.93;2.08
47709;PMS7003;33473;51.640;5.892;2023-02-01T21:23:58;5.05;4.37;1.97
47709;PMS7003;33473;51.640;5.892;2023-02-01T21:37:17;1.92;3.82;2.08
47709;PMS7003;33473;51.640;5.892;2023-02-01T21:50:37;3.12;3.93;2.08
47709;PMS7003;33473;51.640;5.892;2023-02-01T22:03:57;1.2;3.39;1.75
47709;PMS7003;33473;51.640;5.892;2023-02-01T22:17:17;0.6;3.5;1.97
47709;PMS7003;33473;51.640;5.892;2023-02-01T22:30:36;2.04;4.37;1.97
47709;PMS7003;33473;51.640;5.892;2023-02-01T22:43:56;1.44;3.71;2.08
47709;PMS7003;33473;51.640;5.892;2023-02-01T22:57:16;3.6;4.59;2.08
47709;PMS7003;33473;51.640;5.892;2023-02-01T23:10:35;3.48;3.82;2.08
47709;PMS7003;33473;51.640;5.892;2023-02-01T23:23:55;6.01;4.37;2.19
47709;PMS7003;33473;51.640;5.892;2023-02-01T23:37:15;3.6;4.04;2.19
47709;PMS7003;33473;51.640;5.892;2023-02-01T23:50:34;6.61;4.7;2.62
